sensor_id;sensor_type;location;lat;lon;timestamp;temperature;humidity
48768;DHT22;34933;40.968;14.538;2022-08-07T00:02:32;24.60;99.90
48768;DHT22;34933;40.968;14.538;2022-08-07T00:05:17;24.60;99.90
48768;DHT22;34933;40.968;14.538;2022-08-07T00:08:01;24.60;99.90
48768;DHT22;34933;40.968;14.538;2022-08-07T00:10:46;24.60;99.90
48768;DHT22;34933;40.968;14.538;2022-08-07T00:13:31;24.60;99.90
48768;DHT22;34933;40.968;14.538;2022-08-07T00:16:16;24.60;99.90
48768;DHT22;34933;40.968;14.538;2022-08-07T00:19:01;24.60;99.90
48768;DHT22;34933;40.968;14.538;2022-08-07T00:21:45;24.50;99.90
48768;DHT22;34933;40.968;14.538;2022-08-07T00:24:30;24.50;99.90
48768;DHT22;34933;40.968;14.538;2022-08-07T00:27:14;24.60;99.90
48768;DHT22;34933;40.968;14.538;2022-08-07T00:29:59;24.60;99.90
48768;DHT22;34933;40.968;14.538;2022-08-07T00:32:47;24.60;99.90
48768;DHT22;34933;40.968;14.538;2022-08-07T00:35:32;24.60;99.90
48768;DHT22;34933;40.968;14.538;2022-08-07T00:38:17;24.50;99.90
48768;DHT22;34933;40.968;14.538;2022-08-07T00:41:03;24.50;99.90
48768;DHT22;34933;40.968;14.538;2022-08-07T00:43:47;24.60;99.90
48768;DHT22;34933;40.968;14.538;2022-08-07T00:46:32;24.50;99.90
48768;DHT22;34933;40.968;14.538;2022-08-07T00:49:17;24.50;99.90
48768;DHT22;34933;40.968;14.538;2022-08-07T00:52:06;24.50;99.90
48768;DHT22;34933;40.968;14.538;2022-08-07T00:54:51;24.50;99.90
48768;DHT22;34933;40.968;14.538;2022-08-07T00:57:36;24.50;99.90
48768;DHT22;34933;40.968;14.538;2022-08-07T01:00:21;24.50;99.90
48768;DHT22;34933;40.968;14.538;2022-08-07T01:03:06;24.40;99.90
48768;DHT22;34933;40.968;14.538;2022-08-07T01:05:52;24.30;99.90
48768;DHT22;34933;40.968;14.538;2022-08-07T01:08:39;24.30;99.90
48768;DHT22;34933;40.968;14.538;2022-08-07T01:11:24;24.30;99.90
48768;DHT22;34933;40.968;14.538;2022-08-07T01:14:09;24.40;99.90
48768;DHT22;34933;40.968;14.538;2022-08-07T01:16:53;24.30;99.90
48768;DHT22;34933;40.968;14.538;2022-08-07T01:19:40;24.40;99.90
48768;DHT22;34933;40.968;14.538;2022-08-07T01:22:26;24.40;99.90
48768;DHT22;34933;40.968;14.538;2022-08-07T01:25:13;24.40;99.90
48768;DHT22;34933;40.968;14.538;2022-08-07T01:27:58;24.30;99.90
48768;DHT22;34933;40.968;14.538;2022-08-07T01:30:43;24.30;99.90
48768;DHT22;34933;40.968;14.538;2022-08-07T01:33:29;24.30;99.90
48768;DHT22;34933;40.968;14.538;2022-08-07T01:36:15;24.20;99.90
48768;DHT22;34933;40.968;14.538;2022-08-07T01:39:02;24.20;99.90
48768;DHT22;34933;40.968;14.538;2022-08-07T01:41:47;24.20;99.90
48768;DHT22;34933;40.968;14.538;2022-08-07T01:44:32;24.10;99.90
48768;DHT22;34933;40.968;14.538;2022-08-07T01:47:17;24.10;99.90
48768;DHT22;34933;40.968;14.538;2022-08-07T01:50:05;24.10;99.90
48768;DHT22;34933;40.968;14.538;2022-08-07T01:52:51;24.10;99.90
48768;DHT22;34933;40.968;14.538;2022-08-07T01:55:43;24.10;99.90
48768;DHT22;34933;40.968;14.538;2022-08-07T01:58:33;23.90;99.90
48768;DHT22;34933;40.968;14.538;2022-08-07T02:01:27;23.90;99.90
48768;DHT22;34933;40.968;14.538;2022-08-07T02:04:29;23.80;99.90
48768;DHT22;34933;40.968;14.538;2022-08-07T02:07:21;23.80;99.90
48768;DHT22;34933;40.968;14.538;2022-08-07T02:10:10;23.80;99.90
48768;DHT22;34933;40.968;14.538;2022-08-07T02:12:59;23.70;99.90
48768;DHT22;34933;40.968;14.538;2022-08-07T02:15:52;23.70;99.90
48768;DHT22;34933;40.968;14.538;2022-08-07T02:18:38;23.80;99.90
48768;DHT22;34933;40.968;14.538;2022-08-07T02:21:23;23.80;99.90
48768;DHT22;34933;40.968;14.538;2022-08-07T02:24:10;23.80;99.90
48768;DHT22;34933;40.968;14.538;2022-08-07T02:26:59;23.80;99.90
48768;DHT22;34933;40.968;14.538;2022-08-07T02:29:44;23.70;99.90
48768;DHT22;34933;40.968;14.538;2022-08-07T02:32:31;23.50;99.90
48768;DHT22;34933;40.968;14.538;2022-08-07T02:35:17;23.40;99.90
48768;DHT22;34933;40.968;14.538;2022-08-07T02:38:06;23.40;99.90
48768;DHT22;34933;40.968;14.538;2022-08-07T02:40:55;23.40;99.90
48768;DHT22;34933;40.968;14.538;2022-08-07T02:43:41;23.40;99.90
48768;DHT22;34933;40.968;14.538;2022-08-07T02:46:29;23.40;99.90
48768;DHT22;34933;40.968;14.538;2022-08-07T02:49:15;23.40;99.90
48768;DHT22;34933;40.968;14.538;2022-08-07T02:52:02;23.30;99.90
48768;DHT22;34933;40.968;14.538;2022-08-07T02:54:49;23.40;99.90
48768;DHT22;34933;40.968;14.538;2022-08-07T02:57:37;23.30;99.90
48768;DHT22;34933;40.968;14.538;2022-08-07T03:00:25;23.30;99.90
48768;DHT22;34933;40.968;14.538;2022-08-07T03:03:11;23.40;99.90
48768;DHT22;34933;40.968;14.538;2022-08-07T03:06:00;23.30;99.90
48768;DHT22;34933;40.968;14.538;2022-08-07T03:08:45;23.40;99.90
48768;DHT22;34933;40.968;14.538;2022-08-07T03:11:32;23.30;99.90
48768;DHT22;34933;40.968;14.538;2022-08-07T03:14:17;23.30;99.90
48768;DHT22;34933;40.968;14.538;2022-08-07T03:17:03;23.30;99.90
48768;DHT22;34933;40.968;14.538;2022-08-07T03:19:52;23.30;99.90
48768;DHT22;34933;40.968;14.538;2022-08-07T03:22:39;23.30;99.90
48768;DHT22;34933;40.968;14.538;2022-08-07T03:25:26;23.40;99.90
48768;DHT22;34933;40.968;14.538;2022-08-07T03:28:16;23.50;99.90
48768;DHT22;34933;40.968;14.538;2022-08-07T03:31:02;23.50;99.90
48768;DHT22;34933;40.968;14.538;2022-08-07T03:34:06;23.40;99.90
48768;DHT22;34933;40.968;14.538;2022-08-07T03:36:53;23.30;99.90
48768;DHT22;34933;40.968;14.538;2022-08-07T03:39:39;23.20;99.90
48768;DHT22;34933;40.968;14.538;2022-08-07T03:42:25;23.10;99.90
48768;DHT22;34933;40.968;14.538;2022-08-07T03:45:11;23.00;99.90
48768;DHT22;34933;40.968;14.538;2022-08-07T03:47:57;22.90;99.90
48768;DHT22;34933;40.968;14.538;2022-08-07T03:50:44;22.80;99.90
48768;DHT22;34933;40.968;14.538;2022-08-07T03:53:30;22.80;99.90
48768;DHT22;34933;40.968;14.538;2022-08-07T03:56:18;22.80;99.90
48768;DHT22;34933;40.968;14.538;2022-08-07T03:59:05;22.80;99.90
48768;DHT22;34933;40.968;14.538;2022-08-07T04:01:52;22.80;99.90
48768;DHT22;34933;40.968;14.538;2022-08-07T04:04:41;22.80;99.90
48768;DHT22;34933;40.968;14.538;2022-08-07T04:07:27;22.90;99.90
48768;DHT22;34933;40.968;14.538;2022-08-07T04:10:12;22.90;99.90
48768;DHT22;34933;40.968;14.538;2022-08-07T04:12:57;22.90;99.90
48768;DHT22;34933;40.968;14.538;2022-08-07T04:15:43;22.90;99.90
48768;DHT22;34933;40.968;14.538;2022-08-07T04:18:28;22.90;99.90
48768;DHT22;34933;40.968;14.538;2022-08-07T04:21:13;22.90;99.90
48768;DHT22;34933;40.968;14.538;2022-08-07T04:23:58;22.90;99.90
48768;DHT22;34933;40.968;14.538;2022-08-07T04:26:43;23.00;99.90
48768;DHT22;34933;40.968;14.538;2022-08-07T04:29:28;23.00;99.90
48768;DHT22;34933;40.968;14.538;2022-08-07T04:32:13;23.10;99.90
48768;DHT22;34933;40.968;14.538;2022-08-07T04:34:57;23.10;99.90
48768;DHT22;34933;40.968;14.538;2022-08-07T04:37:43;23.20;99.90
48768;DHT22;34933;40.968;14.538;2022-08-07T04:40:28;23.20;99.90
48768;DHT22;34933;40.968;14.538;2022-08-07T04:43:15;23.20;99.90
48768;DHT22;34933;40.968;14.538;2022-08-07T04:46:10;23.10;99.90
48768;DHT22;34933;40.968;14.538;2022-08-07T04:52:24;23.10;99.90
48768;DHT22;34933;40.968;14.538;2022-08-07T04:58:30;23.10;99.90
48768;DHT22;34933;40.968;14.538;2022-08-07T05:04:17;23.30;99.90
48768;DHT22;34933;40.968;14.538;2022-08-07T05:07:20;23.40;99.90
48768;DHT22;34933;40.968;14.538;2022-08-07T05:10:18;23.50;99.90
48768;DHT22;34933;40.968;14.538;2022-08-07T05:13:20;23.70;99.90
48768;DHT22;34933;40.968;14.538;2022-08-07T05:16:09;23.80;99.90
48768;DHT22;34933;40.968;14.538;2022-08-07T05:18:59;23.90;99.90
48768;DHT22;34933;40.968;14.538;2022-08-07T05:21:53;24.00;99.90
48768;DHT22;34933;40.968;14.538;2022-08-07T05:24:39;24.20;99.90
48768;DHT22;34933;40.968;14.538;2022-08-07T05:27:24;24.30;99.90
48768;DHT22;34933;40.968;14.538;2022-08-07T05:30:11;24.40;99.90
48768;DHT22;34933;40.968;14.538;2022-08-07T05:32:57;24.50;99.90
48768;DHT22;34933;40.968;14.538;2022-08-07T05:35:43;24.60;99.90
48768;DHT22;34933;40.968;14.538;2022-08-07T05:38:31;24.60;99.90
48768;DHT22;34933;40.968;14.538;2022-08-07T05:41:16;24.70;99.90
48768;DHT22;34933;40.968;14.538;2022-08-07T05:44:03;24.80;99.90
48768;DHT22;34933;40.968;14.538;2022-08-07T05:46:49;25.00;99.90
48768;DHT22;34933;40.968;14.538;2022-08-07T05:49:37;25.10;99.90
48768;DHT22;34933;40.968;14.538;2022-08-07T05:52:23;25.20;99.90
48768;DHT22;34933;40.968;14.538;2022-08-07T05:55:09;25.30;99.90
48768;DHT22;34933;40.968;14.538;2022-08-07T05:57:54;25.50;99.90
48768;DHT22;34933;40.968;14.538;2022-08-07T06:00:40;25.60;99.90
48768;DHT22;34933;40.968;14.538;2022-08-07T06:03:28;25.80;99.90
48768;DHT22;34933;40.968;14.538;2022-08-07T06:06:13;25.90;99.90
48768;DHT22;34933;40.968;14.538;2022-08-07T06:08:59;26.10;99.90
48768;DHT22;34933;40.968;14.538;2022-08-07T06:11:44;26.20;99.90
48768;DHT22;34933;40.968;14.538;2022-08-07T06:14:28;26.40;99.90
48768;DHT22;34933;40.968;14.538;2022-08-07T06:17:20;26.50;99.90
48768;DHT22;34933;40.968;14.538;2022-08-07T06:20:08;26.60;99.90
48768;DHT22;34933;40.968;14.538;2022-08-07T06:22:54;26.70;99.90
48768;DHT22;34933;40.968;14.538;2022-08-07T06:25:46;26.90;99.90
48768;DHT22;34933;40.968;14.538;2022-08-07T06:28:30;27.00;99.90
48768;DHT22;34933;40.968;14.538;2022-08-07T06:31:15;27.20;99.90
48768;DHT22;34933;40.968;14.538;2022-08-07T06:34:00;27.30;99.90
48768;DHT22;34933;40.968;14.538;2022-08-07T06:36:45;27.40;99.90
48768;DHT22;34933;40.968;14.538;2022-08-07T06:39:30;27.50;99.90
48768;DHT22;34933;40.968;14.538;2022-08-07T06:42:34;27.60;99.90
48768;DHT22;34933;40.968;14.538;2022-08-07T06:45:40;27.70;99.90
48768;DHT22;34933;40.968;14.538;2022-08-07T06:48:27;27.90;99.90
48768;DHT22;34933;40.968;14.538;2022-08-07T06:51:15;28.00;99.90
48768;DHT22;34933;40.968;14.538;2022-08-07T06:54:04;28.10;99.90
48768;DHT22;34933;40.968;14.538;2022-08-07T06:56:53;28.20;99.90
48768;DHT22;34933;40.968;14.538;2022-08-07T06:59:44;28.20;99.90
48768;DHT22;34933;40.968;14.538;2022-08-07T07:02:30;28.30;99.90
48768;DHT22;34933;40.968;14.538;2022-08-07T07:05:15;28.40;99.90
48768;DHT22;34933;40.968;14.538;2022-08-07T07:08:00;28.40;99.90
48768;DHT22;34933;40.968;14.538;2022-08-07T07:10:44;28.50;99.90
48768;DHT22;34933;40.968;14.538;2022-08-07T07:13:36;28.60;99.90
48768;DHT22;34933;40.968;14.538;2022-08-07T07:16:25;28.80;99.90
48768;DHT22;34933;40.968;14.538;2022-08-07T07:19:11;28.80;99.90
48768;DHT22;34933;40.968;14.538;2022-08-07T07:21:59;28.90;99.90
48768;DHT22;34933;40.968;14.538;2022-08-07T07:24:45;29.00;99.90
48768;DHT22;34933;40.968;14.538;2022-08-07T07:27:34;29.10;99.90
48768;DHT22;34933;40.968;14.538;2022-08-07T07:30:23;29.10;99.90
48768;DHT22;34933;40.968;14.538;2022-08-07T07:33:12;29.20;99.90
48768;DHT22;34933;40.968;14.538;2022-08-07T07:35:57;29.30;99.90
48768;DHT22;34933;40.968;14.538;2022-08-07T07:38:42;29.30;99.90
48768;DHT22;34933;40.968;14.538;2022-08-07T07:41:28;29.40;99.90
48768;DHT22;34933;40.968;14.538;2022-08-07T07:44:15;29.50;99.90
48768;DHT22;34933;40.968;14.538;2022-08-07T07:47:00;29.60;99.90
48768;DHT22;34933;40.968;14.538;2022-08-07T07:49:46;29.80;99.90
48768;DHT22;34933;40.968;14.538;2022-08-07T07:52:32;29.90;99.90
48768;DHT22;34933;40.968;14.538;2022-08-07T07:55:18;30.10;99.90
48768;DHT22;34933;40.968;14.538;2022-08-07T07:58:04;30.20;99.90
48768;DHT22;34933;40.968;14.538;2022-08-07T08:00:50;30.30;99.90
48768;DHT22;34933;40.968;14.538;2022-08-07T08:03:36;30.30;99.90
48768;DHT22;34933;40.968;14.538;2022-08-07T08:06:23;30.40;99.90
48768;DHT22;34933;40.968;14.538;2022-08-07T08:09:08;30.50;99.90
48768;DHT22;34933;40.968;14.538;2022-08-07T08:11:54;30.40;99.90
48768;DHT22;34933;40.968;14.538;2022-08-07T08:14:38;30.40;99.90
48768;DHT22;34933;40.968;14.538;2022-08-07T08:17:26;30.60;99.90
48768;DHT22;34933;40.968;14.538;2022-08-07T08:20:13;30.80;99.90
48768;DHT22;34933;40.968;14.538;2022-08-07T08:22:59;30.80;99.90
48768;DHT22;34933;40.968;14.538;2022-08-07T08:26:04;30.90;99.90
48768;DHT22;34933;40.968;14.538;2022-08-07T08:28:53;31.20;99.90
48768;DHT22;34933;40.968;14.538;2022-08-07T08:31:40;31.20;99.60
48768;DHT22;34933;40.968;14.538;2022-08-07T08:34:25;31.30;99.60
48768;DHT22;34933;40.968;14.538;2022-08-07T08:37:11;31.40;99.50
48768;DHT22;34933;40.968;14.538;2022-08-07T08:39:57;31.50;99.50
48768;DHT22;34933;40.968;14.538;2022-08-07T08:42:48;31.70;98.50
48768;DHT22;34933;40.968;14.538;2022-08-07T08:45:51;31.90;97.90
48768;DHT22;34933;40.968;14.538;2022-08-07T08:54:41;32.40;95.90
48768;DHT22;34933;40.968;14.538;2022-08-07T08:57:41;32.60;95.10
48768;DHT22;34933;40.968;14.538;2022-08-07T09:00:31;32.80;95.40
48768;DHT22;34933;40.968;14.538;2022-08-07T09:12:45;33.10;94.10
48768;DHT22;34933;40.968;14.538;2022-08-07T09:27:54;33.40;93.50
48768;DHT22;34933;40.968;14.538;2022-08-07T09:37:03;33.80;92.60
48768;DHT22;34933;40.968;14.538;2022-08-07T09:46:07;34.30;91.50
48768;DHT22;34933;40.968;14.538;2022-08-07T09:49:40;34.40;91.30
48768;DHT22;34933;40.968;14.538;2022-08-07T09:55:21;34.80;88.70
48768;DHT22;34933;40.968;14.538;2022-08-07T09:58:28;35.00;87.40
48768;DHT22;34933;40.968;14.538;2022-08-07T10:11:01;35.50;84.40
48768;DHT22;34933;40.968;14.538;2022-08-07T10:30:25;35.80;83.80
48768;DHT22;34933;40.968;14.538;2022-08-07T10:51:21;36.90;82.00
48768;DHT22;34933;40.968;14.538;2022-08-07T11:00:08;37.20;82.20
48768;DHT22;34933;40.968;14.538;2022-08-07T11:06:28;37.40;80.20
48768;DHT22;34933;40.968;14.538;2022-08-07T11:09:19;37.40;80.50
48768;DHT22;34933;40.968;14.538;2022-08-07T11:12:33;37.70;81.00
48768;DHT22;34933;40.968;14.538;2022-08-07T11:15:23;37.80;80.70
48768;DHT22;34933;40.968;14.538;2022-08-07T11:21:26;38.00;79.90
48768;DHT22;34933;40.968;14.538;2022-08-07T11:27:47;38.60;77.60
48768;DHT22;34933;40.968;14.538;2022-08-07T11:33:56;38.00;76.70
48768;DHT22;34933;40.968;14.538;2022-08-07T11:40:50;38.10;78.80
48768;DHT22;34933;40.968;14.538;2022-08-07T11:43:27;38.40;76.90
48768;DHT22;34933;40.968;14.538;2022-08-07T11:46:23;38.40;77.60
48768;DHT22;34933;40.968;14.538;2022-08-07T11:49:34;38.60;78.20
48768;DHT22;34933;40.968;14.538;2022-08-07T12:11:30;39.30;74.20
48768;DHT22;34933;40.968;14.538;2022-08-07T12:14:23;39.20;76.40
48768;DHT22;34933;40.968;14.538;2022-08-07T12:17:12;39.60;75.00
48768;DHT22;34933;40.968;14.538;2022-08-07T12:20:16;39.60;75.40
48768;DHT22;34933;40.968;14.538;2022-08-07T12:35:18;39.80;74.90
48768;DHT22;34933;40.968;14.538;2022-08-07T12:38:04;40.20;75.00
48768;DHT22;34933;40.968;14.538;2022-08-07T12:40:52;41.10;73.90
48768;DHT22;34933;40.968;14.538;2022-08-07T12:43:38;42.10;73.00
48768;DHT22;34933;40.968;14.538;2022-08-07T12:46:34;42.50;72.10
48768;DHT22;34933;40.968;14.538;2022-08-07T12:53:03;41.10;73.80
48768;DHT22;34933;40.968;14.538;2022-08-07T12:56:35;39.90;74.00
48768;DHT22;34933;40.968;14.538;2022-08-07T12:59:26;38.80;74.40
48768;DHT22;34933;40.968;14.538;2022-08-07T13:02:37;38.00;74.40
48768;DHT22;34933;40.968;14.538;2022-08-07T13:05:40;37.50;74.80
48768;DHT22;34933;40.968;14.538;2022-08-07T13:08:50;37.40;75.60
48768;DHT22;34933;40.968;14.538;2022-08-07T13:17:48;37.20;76.50
48768;DHT22;34933;40.968;14.538;2022-08-07T13:20:56;37.20;76.50
48768;DHT22;34933;40.968;14.538;2022-08-07T13:24:02;37.50;77.20
48768;DHT22;34933;40.968;14.538;2022-08-07T13:30:09;38.50;76.10
48768;DHT22;34933;40.968;14.538;2022-08-07T13:33:08;39.00;75.40
48768;DHT22;34933;40.968;14.538;2022-08-07T13:36:19;38.80;74.70
48768;DHT22;34933;40.968;14.538;2022-08-07T13:42:01;39.30;74.50
48768;DHT22;34933;40.968;14.538;2022-08-07T13:44:46;39.70;73.60
48768;DHT22;34933;40.968;14.538;2022-08-07T13:47:36;40.00;72.90
48768;DHT22;34933;40.968;14.538;2022-08-07T13:50:23;39.60;74.00
48768;DHT22;34933;40.968;14.538;2022-08-07T13:53:09;38.80;74.70
48768;DHT22;34933;40.968;14.538;2022-08-07T13:56:02;38.20;74.70
48768;DHT22;34933;40.968;14.538;2022-08-07T13:58:50;38.00;75.20
48768;DHT22;34933;40.968;14.538;2022-08-07T14:01:49;37.80;77.00
48768;DHT22;34933;40.968;14.538;2022-08-07T14:05:02;37.00;76.50
48768;DHT22;34933;40.968;14.538;2022-08-07T14:07:48;36.50;78.00
48768;DHT22;34933;40.968;14.538;2022-08-07T14:10:35;35.70;80.70
48768;DHT22;34933;40.968;14.538;2022-08-07T14:13:26;35.20;81.00
48768;DHT22;34933;40.968;14.538;2022-08-07T14:16:15;35.20;81.00
48768;DHT22;34933;40.968;14.538;2022-08-07T14:19:02;35.10;81.80
48768;DHT22;34933;40.968;14.538;2022-08-07T14:21:50;35.10;82.20
48768;DHT22;34933;40.968;14.538;2022-08-07T14:24:39;34.80;82.10
48768;DHT22;34933;40.968;14.538;2022-08-07T14:27:36;34.60;82.10
48768;DHT22;34933;40.968;14.538;2022-08-07T14:30:21;34.00;81.40
48768;DHT22;34933;40.968;14.538;2022-08-07T14:33:07;33.60;82.30
48768;DHT22;34933;40.968;14.538;2022-08-07T14:35:57;33.40;82.90
48768;DHT22;34933;40.968;14.538;2022-08-07T14:38:43;33.10;84.80
48768;DHT22;34933;40.968;14.538;2022-08-07T14:41:31;33.00;85.20
48768;DHT22;34933;40.968;14.538;2022-08-07T14:44:17;32.40;86.60
48768;DHT22;34933;40.968;14.538;2022-08-07T14:47:03;32.00;87.70
48768;DHT22;34933;40.968;14.538;2022-08-07T14:49:49;31.60;88.40
48768;DHT22;34933;40.968;14.538;2022-08-07T14:52:36;31.60;88.40
48768;DHT22;34933;40.968;14.538;2022-08-07T14:55:32;31.50;88.90
48768;DHT22;34933;40.968;14.538;2022-08-07T14:58:20;31.40;89.30
48768;DHT22;34933;40.968;14.538;2022-08-07T15:01:08;31.50;89.20
48768;DHT22;34933;40.968;14.538;2022-08-07T15:03:53;31.70;90.00
48768;DHT22;34933;40.968;14.538;2022-08-07T15:06:42;31.80;90.20
48768;DHT22;34933;40.968;14.538;2022-08-07T15:09:32;31.90;90.10
48768;DHT22;34933;40.968;14.538;2022-08-07T15:12:23;32.10;89.80
48768;DHT22;34933;40.968;14.538;2022-08-07T15:15:15;32.10;90.30
48768;DHT22;34933;40.968;14.538;2022-08-07T15:18:20;32.30;90.00
48768;DHT22;34933;40.968;14.538;2022-08-07T15:21:12;32.40;89.30
48768;DHT22;34933;40.968;14.538;2022-08-07T15:24:00;32.50;90.20
48768;DHT22;34933;40.968;14.538;2022-08-07T15:26:51;32.50;90.80
48768;DHT22;34933;40.968;14.538;2022-08-07T15:29:40;32.30;91.30
48768;DHT22;34933;40.968;14.538;2022-08-07T15:32:26;32.20;91.50
48768;DHT22;34933;40.968;14.538;2022-08-07T15:35:17;31.80;92.70
48768;DHT22;34933;40.968;14.538;2022-08-07T15:38:02;31.20;92.50
48768;DHT22;34933;40.968;14.538;2022-08-07T15:40:49;31.20;92.50
48768;DHT22;34933;40.968;14.538;2022-08-07T15:43:36;31.50;92.60
48768;DHT22;34933;40.968;14.538;2022-08-07T15:46:23;31.40;92.20
48768;DHT22;34933;40.968;14.538;2022-08-07T15:49:13;31.60;91.90
48768;DHT22;34933;40.968;14.538;2022-08-07T15:52:00;31.90;91.80
48768;DHT22;34933;40.968;14.538;2022-08-07T15:54:45;32.10;91.60
48768;DHT22;34933;40.968;14.538;2022-08-07T15:57:32;31.90;91.60
48768;DHT22;34933;40.968;14.538;2022-08-07T16:00:20;31.70;92.10
48768;DHT22;34933;40.968;14.538;2022-08-07T16:03:13;32.00;91.90
48768;DHT22;34933;40.968;14.538;2022-08-07T16:06:00;32.40;91.50
48768;DHT22;34933;40.968;14.538;2022-08-07T16:08:46;33.20;91.40
48768;DHT22;34933;40.968;14.538;2022-08-07T16:32:46;36.90;84.60
48768;DHT22;34933;40.968;14.538;2022-08-07T16:35:45;36.30;86.60
48768;DHT22;34933;40.968;14.538;2022-08-07T16:55:00;33.80;92.10
48768;DHT22;34933;40.968;14.538;2022-08-07T16:58:02;33.70;92.40
48768;DHT22;34933;40.968;14.538;2022-08-07T17:07:22;33.40;92.80
48768;DHT22;34933;40.968;14.538;2022-08-07T17:22:13;33.00;92.30
48768;DHT22;34933;40.968;14.538;2022-08-07T17:30:55;32.50;91.80
48768;DHT22;34933;40.968;14.538;2022-08-07T17:33:47;32.30;92.20
48768;DHT22;34933;40.968;14.538;2022-08-07T17:36:33;32.20;92.80
48768;DHT22;34933;40.968;14.538;2022-08-07T17:42:43;31.80;94.40
48768;DHT22;34933;40.968;14.538;2022-08-07T17:45:43;31.60;94.90
48768;DHT22;34933;40.968;14.538;2022-08-07T17:48:58;31.50;95.50
48768;DHT22;34933;40.968;14.538;2022-08-07T17:52:09;31.30;95.30
48768;DHT22;34933;40.968;14.538;2022-08-07T17:55:10;31.10;95.70
48768;DHT22;34933;40.968;14.538;2022-08-07T17:58:02;31.00;96.00
48768;DHT22;34933;40.968;14.538;2022-08-07T18:00:51;30.80;95.80
48768;DHT22;34933;40.968;14.538;2022-08-07T18:06:50;30.60;96.70
48768;DHT22;34933;40.968;14.538;2022-08-07T18:09:37;30.30;97.00
48768;DHT22;34933;40.968;14.538;2022-08-07T18:18:51;29.80;98.60
48768;DHT22;34933;40.968;14.538;2022-08-07T18:21:43;29.70;98.70
48768;DHT22;34933;40.968;14.538;2022-08-07T18:24:33;29.60;99.10
48768;DHT22;34933;40.968;14.538;2022-08-07T18:30:38;29.40;99.50
48768;DHT22;34933;40.968;14.538;2022-08-07T18:39:51;29.20;99.90
48768;DHT22;34933;40.968;14.538;2022-08-07T18:42:48;29.10;99.90
48768;DHT22;34933;40.968;14.538;2022-08-07T18:46:02;29.10;99.90
48768;DHT22;34933;40.968;14.538;2022-08-07T18:48:53;29.00;99.90
48768;DHT22;34933;40.968;14.538;2022-08-07T18:57:47;28.90;99.90
48768;DHT22;34933;40.968;14.538;2022-08-07T19:00:46;28.80;99.90
48768;DHT22;34933;40.968;14.538;2022-08-07T19:13:05;28.50;99.90
48768;DHT22;34933;40.968;14.538;2022-08-07T19:15:54;28.30;99.90
48768;DHT22;34933;40.968;14.538;2022-08-07T19:18:48;28.10;99.90
48768;DHT22;34933;40.968;14.538;2022-08-07T19:21:39;28.00;99.90
48768;DHT22;34933;40.968;14.538;2022-08-07T19:24:37;28.10;99.90
48768;DHT22;34933;40.968;14.538;2022-08-07T19:27:23;28.10;99.90
48768;DHT22;34933;40.968;14.538;2022-08-07T19:30:11;28.20;99.90
48768;DHT22;34933;40.968;14.538;2022-08-07T19:33:01;28.20;99.90
48768;DHT22;34933;40.968;14.538;2022-08-07T19:35:54;28.10;99.90
48768;DHT22;34933;40.968;14.538;2022-08-07T19:38:43;28.20;99.90
48768;DHT22;34933;40.968;14.538;2022-08-07T19:41:33;28.20;99.90
48768;DHT22;34933;40.968;14.538;2022-08-07T19:44:29;28.30;99.90
48768;DHT22;34933;40.968;14.538;2022-08-07T19:47:19;28.30;99.90
48768;DHT22;34933;40.968;14.538;2022-08-07T19:50:07;28.30;99.90
48768;DHT22;34933;40.968;14.538;2022-08-07T19:52:52;28.30;98.60
48768;DHT22;34933;40.968;14.538;2022-08-07T19:55:38;28.40;99.30
48768;DHT22;34933;40.968;14.538;2022-08-07T19:58:25;28.20;99.60
48768;DHT22;34933;40.968;14.538;2022-08-07T20:01:14;28.10;99.90
48768;DHT22;34933;40.968;14.538;2022-08-07T20:04:01;28.10;99.90
48768;DHT22;34933;40.968;14.538;2022-08-07T20:06:47;28.10;99.90
48768;DHT22;34933;40.968;14.538;2022-08-07T20:09:33;28.10;99.90
48768;DHT22;34933;40.968;14.538;2022-08-07T20:12:25;28.10;99.90
48768;DHT22;34933;40.968;14.538;2022-08-07T20:15:16;28.00;99.90
48768;DHT22;34933;40.968;14.538;2022-08-07T20:18:05;28.00;99.90
48768;DHT22;34933;40.968;14.538;2022-08-07T20:20:55;27.90;99.90
48768;DHT22;34933;40.968;14.538;2022-08-07T20:23:48;28.10;99.90
48768;DHT22;34933;40.968;14.538;2022-08-07T20:26:34;28.20;99.30
48768;DHT22;34933;40.968;14.538;2022-08-07T20:29:25;28.40;97.70
48768;DHT22;34933;40.968;14.538;2022-08-07T20:32:20;28.50;96.80
48768;DHT22;34933;40.968;14.538;2022-08-07T20:35:11;28.50;96.90
48768;DHT22;34933;40.968;14.538;2022-08-07T20:37:56;28.60;96.70
48768;DHT22;34933;40.968;14.538;2022-08-07T20:40:47;28.50;97.40
48768;DHT22;34933;40.968;14.538;2022-08-07T20:43:33;28.40;96.60
48768;DHT22;34933;40.968;14.538;2022-08-07T20:46:23;28.30;96.60
48768;DHT22;34933;40.968;14.538;2022-08-07T20:49:10;28.30;96.70
48768;DHT22;34933;40.968;14.538;2022-08-07T20:51:55;28.20;96.80
48768;DHT22;34933;40.968;14.538;2022-08-07T20:54:40;28.20;96.70
48768;DHT22;34933;40.968;14.538;2022-08-07T20:57:27;28.00;97.20
48768;DHT22;34933;40.968;14.538;2022-08-07T21:00:13;27.90;97.40
48768;DHT22;34933;40.968;14.538;2022-08-07T21:03:00;27.90;97.10
48768;DHT22;34933;40.968;14.538;2022-08-07T21:06:00;27.80;97.10
48768;DHT22;34933;40.968;14.538;2022-08-07T21:09:02;27.70;97.40
48768;DHT22;34933;40.968;14.538;2022-08-07T21:11:50;27.60;98.20
48768;DHT22;34933;40.968;14.538;2022-08-07T21:14:40;27.50;98.30
48768;DHT22;34933;40.968;14.538;2022-08-07T21:17:27;27.40;98.30
48768;DHT22;34933;40.968;14.538;2022-08-07T21:20:14;27.40;97.50
48768;DHT22;34933;40.968;14.538;2022-08-07T21:23:06;27.50;97.50
48768;DHT22;34933;40.968;14.538;2022-08-07T21:29:02;27.80;95.50
48768;DHT22;34933;40.968;14.538;2022-08-07T21:32:18;28.10;95.30
48768;DHT22;34933;40.968;14.538;2022-08-07T21:35:20;28.00;95.80
48768;DHT22;34933;40.968;14.538;2022-08-07T21:38:19;27.90;96.10
48768;DHT22;34933;40.968;14.538;2022-08-07T21:44:49;27.60;96.30
48768;DHT22;34933;40.968;14.538;2022-08-07T21:47:40;27.60;96.10
48768;DHT22;34933;40.968;14.538;2022-08-07T21:50:33;27.50;96.30
48768;DHT22;34933;40.968;14.538;2022-08-07T21:53:30;27.60;96.00
48768;DHT22;34933;40.968;14.538;2022-08-07T22:00:04;27.50;95.90
48768;DHT22;34933;40.968;14.538;2022-08-07T22:06:00;27.40;95.80
48768;DHT22;34933;40.968;14.538;2022-08-07T22:09:03;27.30;95.90
48768;DHT22;34933;40.968;14.538;2022-08-07T22:11:48;27.30;95.80
48768;DHT22;34933;40.968;14.538;2022-08-07T22:14:50;27.30;95.60
48768;DHT22;34933;40.968;14.538;2022-08-07T22:27:01;27.10;96.10